createdAt,value
2023-04-09T00:00:10.619Z,18.05
2023-04-09T00:05:41.286Z,17.57
2023-04-09T00:10:44.564Z,18.17
2023-04-09T00:15:48.374Z,17.68
2023-04-09T00:20:53.103Z,17.86
2023-04-09T00:25:56.449Z,18.62
2023-04-09T00:31:01.937Z,18.17
2023-04-09T00:36:06.928Z,16.64
2023-04-09T00:41:10.595Z,14.09
2023-04-09T00:46:17.189Z,14.76
2023-04-09T00:51:21.999Z,14.48
2023-04-09T00:56:31.037Z,15.23
2023-04-09T01:01:34.400Z,15.49
2023-04-09T01:06:44.476Z,14.75
2023-04-09T01:11:54.294Z,15.08
2023-04-09T01:17:01.829Z,14.78
2023-04-09T01:22:15.340Z,14.79
2023-04-09T01:27:21.335Z,14.79
2023-04-09T01:32:38.272Z,15.24
2023-04-09T01:37:42.899Z,15.72
2023-04-09T01:42:48.406Z,16.68
2023-04-09T01:47:54.435Z,17.11
2023-04-09T01:52:58.204Z,18.18
2023-04-09T01:58:01.565Z,18.58
2023-04-09T02:03:12.303Z,18.90
2023-04-09T02:08:21.107Z,18.38
2023-04-09T02:13:25.892Z,19.03
2023-04-09T02:18:33.499Z,19.48
2023-04-09T02:23:41.476Z,19.36
2023-04-09T02:28:46.926Z,19.36
2023-04-09T02:33:51.781Z,19.51
2023-04-09T02:38:57.557Z,19.81
2023-04-09T02:44:00.944Z,19.52
2023-04-09T02:49:08.814Z,19.33
2023-04-09T02:54:12.340Z,19.75
2023-04-09T02:59:17.986Z,19.35
2023-04-09T03:04:22.747Z,19.61
2023-04-09T03:09:26.284Z,19.34
2023-04-09T03:14:32.916Z,18.64
2023-04-09T03:19:41.152Z,18.37
2023-04-09T03:24:44.880Z,18.01
2023-04-09T03:29:50.344Z,19.18
2023-04-09T03:34:55.378Z,17.51
2023-04-09T03:39:59.259Z,17.78
2023-04-09T03:45:06.123Z,17.84
2023-04-09T03:50:20.200Z,19.59
2023-04-09T03:55:28.189Z,18.23
2023-04-09T04:00:32.262Z,18.12
2023-04-09T04:06:01.298Z,18.87
2023-04-09T04:11:09.545Z,18.67
2023-04-09T04:16:15.578Z,17.54
2023-04-09T04:21:22.731Z,19.20
2023-04-09T04:26:33.584Z,18.33
2023-04-09T04:31:37.165Z,18.57
2023-04-09T04:36:44.205Z,18.67
2023-04-09T04:41:47.700Z,18.61
2023-04-09T04:46:56.720Z,23.51
2023-04-09T04:52:01.624Z,19.28
2023-04-09T04:57:05.305Z,17.90
2023-04-09T05:02:12.843Z,17.31
2023-04-09T05:07:29.493Z,17.66
2023-04-09T05:12:34.405Z,18.12
2023-04-09T05:17:38.571Z,20.34
2023-04-09T05:22:45.108Z,22.41
2023-04-09T05:27:48.664Z,22.69
2023-04-09T05:32:52.052Z,24.61
2023-04-09T05:37:57.013Z,23.63
2023-04-09T05:43:03.383Z,23.81
2023-04-09T05:48:17.142Z,24.32
2023-04-09T05:53:22.849Z,24.12
2023-04-09T05:58:29.571Z,23.01
2023-04-09T06:03:34.608Z,23.01
2023-04-09T06:08:39.398Z,22.25
2023-04-09T06:13:42.714Z,21.91
2023-04-09T06:18:49.684Z,21.14
2023-04-09T06:23:54.712Z,21.25
2023-04-09T06:29:00.803Z,21.71
2023-04-09T06:34:04.161Z,21.85
2023-04-09T06:39:11.557Z,20.64
2023-04-09T06:44:15.083Z,20.25
2023-04-09T06:49:18.444Z,20.45
2023-04-09T06:54:25.469Z,20.04
2023-04-09T06:59:31.046Z,20.31
2023-04-09T07:04:37.014Z,21.14
2023-04-09T07:09:44.086Z,20.30
2023-04-09T07:14:47.502Z,19.47
2023-04-09T07:19:51.631Z,19.31
2023-04-09T07:24:58.692Z,21.69
2023-04-09T07:30:03.241Z,20.02
2023-04-09T07:35:09.744Z,19.46
2023-04-09T07:40:16.613Z,18.29
2023-04-09T07:45:20.019Z,18.91
2023-04-09T07:50:23.462Z,18.92
2023-04-09T07:55:30.465Z,18.57
2023-04-09T08:00:33.845Z,17.66
2023-04-09T08:05:38.101Z,17.61
2023-04-09T08:10:44.876Z,19.43
2023-04-09T08:15:50.858Z,19.36
2023-04-09T08:20:54.234Z,20.08
2023-04-09T08:25:58.920Z,19.92
2023-04-09T08:31:02.327Z,19.17
2023-04-09T08:36:09.160Z,16.97
2023-04-09T08:41:20.556Z,17.52
2023-04-09T08:46:24.320Z,17.15
2023-04-09T08:51:28.780Z,19.13
2023-04-09T08:56:33.536Z,16.39
2023-04-09T09:01:37.099Z,16.28
2023-04-09T09:06:41.430Z,18.56
2023-04-09T09:11:47.037Z,21.22
2023-04-09T09:17:05.600Z,20.27
2023-04-09T09:22:13.245Z,21.65
2023-04-09T09:27:31.509Z,20.83
2023-04-09T09:32:36.341Z,20.14
2023-04-09T09:37:43.522Z,20.45
2023-04-09T09:42:55.625Z,23.06
2023-04-09T09:48:04.212Z,20.37
2023-04-09T09:53:08.821Z,21.90
2023-04-09T09:58:17.642Z,21.46
2023-04-09T10:03:24.400Z,20.63
2023-04-09T10:08:33.465Z,19.37
2023-04-09T10:13:40.590Z,18.68
2023-04-09T10:18:45.439Z,19.97
2023-04-09T10:23:54.137Z,21.05
2023-04-09T10:29:11.697Z,21.03
2023-04-09T10:34:19.143Z,23.12
2023-04-09T10:39:27.680Z,21.10
2023-04-09T10:44:35.671Z,22.35
2023-04-09T10:49:44.567Z,20.92
2023-04-09T10:54:48.281Z,20.50
2023-04-09T10:59:52.309Z,20.29
2023-04-09T11:05:08.125Z,19.38
2023-04-09T11:10:13.831Z,19.71
2023-04-09T11:15:17.899Z,19.01
2023-04-09T11:20:24.105Z,19.81
2023-04-09T11:25:28.573Z,20.02
2023-04-09T11:30:34.508Z,19.99
2023-04-09T11:35:39.495Z,17.60
2023-04-09T11:40:48.417Z,14.97
2023-04-09T11:45:52.791Z,13.63
2023-04-09T11:51:04.024Z,12.87
2023-04-09T11:56:07.929Z,12.44
2023-04-09T12:01:11.399Z,12.61
2023-04-09T12:06:16.264Z,12.26
2023-04-09T12:11:22.063Z,12.57
2023-04-09T12:16:25.409Z,12.46
2023-04-09T12:21:43.661Z,14.86
2023-04-09T12:26:48.977Z,16.62
2023-04-09T12:31:54.932Z,15.63
2023-04-09T12:36:58.311Z,13.72
2023-04-09T12:42:03.072Z,15.69
2023-04-09T12:47:08.783Z,14.81
2023-04-09T12:52:12.167Z,14.87
2023-04-09T12:57:16.832Z,15.65
2023-04-09T13:02:22.875Z,16.45
2023-04-09T13:07:29.560Z,14.31
2023-04-09T13:12:34.238Z,13.40
2023-04-09T13:17:37.578Z,12.84
2023-04-09T13:22:41.339Z,12.37
2023-04-09T13:27:46.112Z,11.68
2023-04-09T13:32:49.605Z,13.24
2023-04-09T13:37:52.931Z,14.10
2023-04-09T13:42:57.767Z,13.29
2023-04-09T13:48:01.133Z,13.53
2023-04-09T13:53:05.391Z,15.06
2023-04-09T13:58:10.357Z,13.04
2023-04-09T14:03:14.417Z,12.58
2023-04-09T14:08:20.277Z,11.94
2023-04-09T14:13:27.228Z,13.18
2023-04-09T14:18:33.023Z,13.21
2023-04-09T14:23:38.812Z,11.98
2023-04-09T14:28:44.939Z,11.37
2023-04-09T14:33:48.795Z,11.33
2023-04-09T14:38:54.111Z,11.17
2023-04-09T14:44:03.147Z,9.89
2023-04-09T14:49:06.482Z,10.11
2023-04-09T14:54:09.946Z,8.86
2023-04-09T14:59:14.670Z,8.71
2023-04-09T15:04:18.108Z,9.53
2023-04-09T15:09:21.589Z,10.04
2023-04-09T15:14:32.011Z,10.21
2023-04-09T15:19:35.418Z,10.80
2023-04-09T15:24:38.970Z,9.23
2023-04-09T15:29:43.663Z,9.21
2023-04-09T15:34:47.073Z,9.78
2023-04-09T15:39:52.552Z,8.57
2023-04-09T15:44:57.365Z,8.46
2023-04-09T15:50:03.094Z,9.04
2023-04-09T15:55:07.092Z,9.32
2023-04-09T16:00:12.393Z,8.66
2023-04-09T16:05:15.940Z,8.24
2023-04-09T16:10:19.311Z,8.26
2023-04-09T16:15:24.033Z,8.11
2023-04-09T16:20:29.359Z,8.49
2023-04-09T16:25:32.669Z,9.36
2023-04-09T16:30:37.686Z,8.54
2023-04-09T16:35:43.369Z,9.38
2023-04-09T16:40:46.805Z,9.68
2023-04-09T16:45:54.634Z,8.56
2023-04-09T16:50:58.259Z,7.98
2023-04-09T16:56:01.861Z,10.70
2023-04-09T17:01:08.938Z,9.06
2023-04-09T17:06:12.326Z,10.06
2023-04-09T17:11:18.193Z,10.27
2023-04-09T17:16:22.919Z,9.01
2023-04-09T17:21:26.475Z,9.74
2023-04-09T17:26:29.938Z,10.29
2023-04-09T17:31:34.685Z,10.76
2023-04-09T17:36:38.126Z,11.44
2023-04-09T17:41:42.558Z,14.92
2023-04-09T17:46:47.514Z,14.49
2023-04-09T17:51:50.871Z,14.31
2023-04-09T17:56:54.528Z,15.31
2023-04-09T18:02:02.362Z,17.85
2023-04-09T18:07:06.013Z,16.99
2023-04-09T18:12:09.314Z,17.95
2023-04-09T18:17:16.546Z,18.83
2023-04-09T18:22:21.886Z,18.32
2023-04-09T18:27:28.266Z,18.94
2023-04-09T18:32:35.267Z,18.96
2023-04-09T18:37:41.277Z,19.39
2023-04-09T18:42:44.827Z,18.77
2023-04-09T18:47:49.780Z,10549.63
2023-04-09T18:52:55.992Z,17337.57
2023-04-09T18:57:59.500Z,17272.71
2023-04-09T19:03:07.342Z,16972.49
2023-04-09T19:08:10.986Z,17223.32
2023-04-09T19:13:16.934Z,17294.53
2023-04-09T19:18:21.685Z,17304.54
2023-04-09T19:23:25.712Z,17300.02
2023-04-09T19:28:29.143Z,17300.88
2023-04-09T19:33:33.891Z,17267.61
2023-04-09T19:38:37.339Z,17214.37
2023-04-09T19:43:42.038Z,17282.04
2023-04-09T19:48:48.531Z,17293.53
2023-04-09T19:53:53.993Z,17221.75
2023-04-09T19:58:59.904Z,17249.57
2023-04-09T20:04:05.195Z,17330.46
2023-04-09T20:09:12.489Z,17352.54
2023-04-09T20:14:15.826Z,17293.79
2023-04-09T20:19:22.218Z,17261.86
2023-04-09T20:24:28.554Z,17272.04
2023-04-09T20:29:34.990Z,13823.37
2023-04-09T20:34:39.838Z,17254.82
2023-04-09T20:39:43.214Z,17307.91
2023-04-09T20:44:46.726Z,17189.66
2023-04-09T20:49:53.203Z,17201.38
2023-04-09T20:54:59.102Z,17198.29
2023-04-09T21:00:02.715Z,17215.97
2023-04-09T21:05:19.539Z,17212.99
2023-04-09T21:10:26.464Z,17234.14
2023-04-09T21:15:29.866Z,17270.47
2023-04-09T21:20:34.538Z,17280.86
2023-04-09T21:25:37.918Z,17287.94
2023-04-09T21:30:41.310Z,17261.19
2023-04-09T21:35:46.096Z,17260.74
2023-04-09T21:40:49.510Z,17246.24
2023-04-09T21:45:55.087Z,17234.25
2023-04-09T21:51:02.458Z,17207.27
2023-04-09T21:56:08.653Z,17192.47
2023-04-09T22:01:22.652Z,17215.85
2023-04-09T22:06:33.184Z,17201.08
2023-04-09T22:11:41.123Z,17219.55
2023-04-09T22:16:46.649Z,17239.23
2023-04-09T22:21:53.842Z,17248.51
2023-04-09T22:26:59.078Z,17260.33
2023-04-09T22:32:03.867Z,17260.24
2023-04-09T22:37:08.555Z,17272.06
2023-04-09T22:42:14.207Z,17238.71
2023-04-09T22:47:17.578Z,17223.54
2023-04-09T22:52:22.359Z,17251.28
2023-04-09T22:57:25.908Z,17244.60
2023-04-09T23:02:29.433Z,17238.37
2023-04-09T23:07:34.287Z,17206.66
2023-04-09T23:12:37.612Z,17216.79
2023-04-09T23:17:41.619Z,17230.03
2023-04-09T23:22:48.683Z,17283.28
2023-04-09T23:27:54.520Z,17259.13
2023-04-09T23:32:58.167Z,17224.97
2023-04-09T23:38:02.986Z,17212.29
2023-04-09T23:43:06.330Z,17221.56
2023-04-09T23:48:09.886Z,17212.13
2023-04-09T23:53:17.723Z,17150.25
2023-04-09T23:58:21.448Z,17202.60
